createdAt,value
2023-04-11T00:02:00.767Z,14.30
2023-04-11T00:04:28.529Z,13.23
2023-04-11T00:06:55.682Z,16.45
2023-04-11T00:09:22.992Z,16.27
2023-04-11T00:11:50.295Z,17.42
2023-04-11T00:14:45.687Z,13.30
2023-04-11T00:17:17.699Z,14.80
2023-04-11T00:20:35.471Z,16.30
2023-04-11T00:23:09.732Z,12.80
2023-04-11T00:25:40.073Z,15.68
2023-04-11T00:28:11.080Z,13.43
2023-04-11T00:31:08.080Z,17.08
2023-04-11T00:33:40.982Z,15.77
2023-04-11T00:36:08.677Z,17.33
2023-04-11T00:38:36.327Z,11.40
2023-04-11T00:41:03.729Z,11.57
2023-04-11T00:43:30.762Z,10.90
2023-04-11T00:45:58.237Z,9.85
2023-04-11T00:48:28.697Z,10.80
2023-04-11T00:50:55.647Z,11.75
2023-04-11T00:53:23.434Z,15.50
2023-04-11T00:55:51.051Z,14.38
2023-04-11T00:58:18.209Z,12.15
2023-04-11T01:00:49.902Z,12.80
2023-04-11T01:03:19.023Z,15.38
2023-04-11T01:05:48.707Z,12.30
2023-04-11T01:08:17.555Z,16.10
2023-04-11T01:10:44.606Z,16.92
2023-04-11T01:13:12.919Z,13.90
2023-04-11T01:15:39.882Z,14.52
2023-04-11T01:18:08.995Z,17.95
2023-04-11T01:20:38.800Z,20.13
2023-04-11T01:23:07.365Z,16.35
2023-04-11T01:25:34.413Z,14.40
2023-04-11T01:28:01.894Z,16.58
2023-04-11T01:30:29.020Z,19.80
2023-04-11T01:32:56.148Z,18.23
2023-04-11T01:35:23.559Z,18.08
2023-04-11T01:37:50.524Z,27.33
2023-04-11T01:40:19.105Z,15.70
2023-04-11T01:42:47.252Z,18.67
2023-04-11T01:45:15.125Z,14.45
2023-04-11T01:47:42.085Z,15.25
2023-04-11T01:50:09.541Z,16.38
2023-04-11T01:52:36.539Z,18.20
2023-04-11T01:55:04.143Z,17.85
2023-04-11T01:57:31.230Z,21.80
2023-04-11T01:59:58.381Z,20.67
2023-04-11T02:02:26.170Z,20.73
2023-04-11T02:04:53.237Z,21.30
2023-04-11T02:07:21.029Z,20.55
2023-04-11T02:09:48.051Z,19.83
2023-04-11T02:12:15.516Z,20.33
2023-04-11T02:14:44.853Z,17.40
2023-04-11T02:17:43.439Z,18.90
2023-04-11T02:20:14.212Z,17.27
2023-04-11T02:22:41.872Z,14.73
2023-04-11T02:25:09.142Z,20.80
2023-04-11T02:27:36.261Z,18.13
2023-04-11T02:30:06.202Z,19.48
2023-04-11T02:32:37.865Z,21.73
2023-04-11T02:35:05.694Z,20.70
2023-04-11T02:37:32.636Z,26.15
2023-04-11T02:39:59.962Z,29.13
2023-04-11T02:42:26.766Z,24.90
2023-04-11T02:44:56.870Z,23.90
2023-04-11T02:47:27.554Z,23.08
2023-04-11T02:49:57.601Z,25.50
2023-04-11T02:52:30.179Z,30.55
2023-04-11T02:54:57.038Z,27.38
2023-04-11T02:57:23.998Z,27.92
2023-04-11T02:59:51.212Z,26.67
2023-04-11T03:02:25.553Z,26.48
2023-04-11T03:04:52.823Z,25.73
2023-04-11T03:07:19.739Z,26.60
2023-04-11T03:09:47.131Z,28.98
2023-04-11T03:12:14.128Z,28.02
2023-04-11T03:14:51.312Z,25.05
2023-04-11T03:17:20.658Z,26.25
2023-04-11T03:19:47.812Z,26.20
2023-04-11T03:22:15.020Z,26.13
2023-04-11T03:24:41.969Z,29.25
2023-04-11T03:27:09.044Z,29.48
2023-04-11T03:29:38.813Z,28.52
2023-04-11T03:32:12.520Z,27.02
2023-04-11T03:34:39.471Z,28.80
2023-04-11T03:37:09.076Z,27.55
2023-04-11T03:39:37.727Z,26.52
2023-04-11T03:42:04.893Z,27.23
2023-04-11T03:44:32.826Z,31.80
2023-04-11T03:46:59.899Z,29.95
2023-04-11T03:49:34.244Z,29.65
2023-04-11T03:52:01.346Z,29.92
2023-04-11T03:54:28.798Z,33.33
2023-04-11T03:56:57.427Z,30.50
2023-04-11T03:59:25.737Z,29.42
2023-04-11T04:02:14.387Z,32.05
2023-04-11T04:04:50.815Z,32.88
2023-04-11T04:07:32.902Z,44.70
2023-04-11T04:10:09.504Z,33.65
2023-04-11T04:12:36.577Z,34.47
2023-04-11T04:15:09.606Z,39.97
2023-04-11T04:17:36.607Z,37.38
2023-04-11T04:20:10.965Z,46.60
2023-04-11T04:22:39.414Z,29.58
2023-04-11T04:25:07.030Z,32.88
2023-04-11T04:27:35.449Z,38.50
2023-04-11T04:30:04.704Z,29.63
2023-04-11T04:32:58.976Z,34.35
2023-04-11T04:35:27.269Z,30.48
2023-04-11T04:37:55.038Z,31.13
2023-04-11T04:40:40.241Z,30.42
2023-04-11T04:43:11.638Z,28.33
2023-04-11T04:46:00.802Z,34.10
2023-04-11T04:48:34.518Z,32.35
2023-04-11T04:51:01.574Z,31.33
2023-04-11T04:53:28.922Z,33.00
2023-04-11T04:55:58.852Z,36.17
2023-04-11T04:58:28.446Z,27.80
2023-04-11T05:00:56.738Z,29.65
2023-04-11T05:03:28.010Z,26.67
2023-04-11T05:05:56.999Z,28.60
2023-04-11T05:08:24.746Z,28.48
2023-04-11T05:10:54.629Z,26.52
2023-04-11T05:13:22.149Z,29.02
2023-04-11T05:15:49.305Z,28.65
2023-04-11T05:18:16.688Z,33.08
2023-04-11T05:20:44.214Z,32.08
2023-04-11T05:23:16.289Z,40.25
2023-04-11T05:25:43.770Z,37.63
2023-04-11T05:28:13.231Z,32.22
2023-04-11T05:30:40.408Z,34.75
2023-04-11T05:33:07.792Z,37.50
2023-04-11T05:35:34.689Z,39.75
2023-04-11T05:38:02.501Z,35.25
2023-04-11T05:40:29.489Z,34.58
2023-04-11T05:42:56.502Z,35.17
2023-04-11T05:45:25.600Z,33.45
2023-04-11T05:47:52.750Z,32.75
2023-04-11T05:50:19.597Z,31.10
2023-04-11T05:52:47.056Z,32.20
2023-04-11T05:55:14.249Z,29.52
2023-04-11T05:57:41.341Z,35.08
2023-04-11T06:00:16.654Z,37.67
2023-04-11T06:02:44.914Z,36.30
2023-04-11T06:05:12.383Z,35.88
2023-04-11T06:07:40.120Z,39.17
2023-04-11T06:10:08.230Z,29.63
2023-04-11T06:12:35.527Z,38.78
2023-04-11T06:15:02.846Z,36.22
2023-04-11T06:17:29.925Z,31.30
2023-04-11T06:19:56.934Z,33.67
2023-04-11T06:22:23.974Z,29.08
2023-04-11T06:24:50.883Z,29.27
2023-04-11T06:27:17.802Z,29.27
2023-04-11T06:29:44.684Z,27.63
2023-04-11T06:32:12.473Z,27.63
2023-04-11T06:34:39.873Z,26.33
2023-04-11T06:37:08.038Z,28.92
2023-04-11T06:39:36.091Z,28.42
2023-04-11T06:42:03.765Z,24.45
2023-04-11T06:44:32.728Z,27.60
2023-04-11T06:46:59.574Z,26.38
2023-04-11T06:49:28.501Z,29.85
2023-04-11T06:51:56.149Z,31.95
2023-04-11T06:54:23.785Z,28.98
2023-04-11T06:56:53.645Z,27.05
2023-04-11T06:59:20.770Z,30.58
2023-04-11T07:01:48.797Z,29.35
2023-04-11T07:04:16.717Z,43.88
2023-04-11T07:06:44.034Z,40.47
2023-04-11T07:09:12.640Z,28.27
2023-04-11T07:11:39.773Z,36.80
2023-04-11T07:14:06.742Z,35.78
2023-04-11T07:16:33.973Z,30.55
2023-04-11T07:19:01.019Z,33.00
2023-04-11T07:21:28.537Z,25.88
2023-04-11T07:23:56.043Z,26.38
2023-04-11T07:26:24.043Z,27.92
2023-04-11T07:28:51.422Z,26.95
2023-04-11T07:31:21.490Z,28.92
2023-04-11T07:33:48.628Z,25.35
2023-04-11T07:36:16.275Z,27.90
2023-04-11T07:38:43.339Z,33.08
2023-04-11T07:41:10.469Z,25.60
2023-04-11T07:43:37.598Z,32.40
2023-04-11T07:46:04.765Z,25.42
2023-04-11T07:48:32.452Z,25.92
2023-04-11T07:50:59.327Z,27.00
2023-04-11T07:53:27.076Z,25.40
2023-04-11T07:55:53.988Z,27.55
2023-04-11T07:58:21.040Z,31.20
2023-04-11T08:00:48.710Z,32.42
2023-04-11T08:03:17.112Z,29.15
2023-04-11T08:05:44.314Z,26.75
2023-04-11T08:08:11.360Z,31.13
2023-04-11T08:10:38.505Z,23.15
2023-04-11T08:13:05.682Z,24.80
2023-04-11T08:15:32.616Z,20.70
2023-04-11T08:17:59.989Z,22.38
2023-04-11T08:20:26.902Z,24.73
2023-04-11T08:22:53.655Z,26.63
2023-04-11T08:25:24.796Z,23.45
2023-04-11T08:27:52.614Z,20.80
2023-04-11T08:30:20.653Z,24.52
2023-04-11T08:32:47.767Z,24.55
2023-04-11T08:35:14.830Z,33.47
2023-04-11T08:37:41.818Z,25.00
2023-04-11T08:40:09.609Z,29.42
2023-04-11T08:42:36.477Z,24.00
2023-04-11T08:45:08.923Z,25.80
2023-04-11T08:47:39.599Z,30.80
2023-04-11T08:50:07.434Z,30.90
2023-04-11T08:52:35.632Z,26.13
2023-04-11T08:55:02.728Z,26.02
2023-04-11T08:57:34.864Z,24.02
2023-04-11T09:00:15.361Z,24.52
2023-04-11T09:03:02.831Z,24.13
2023-04-11T09:05:31.153Z,23.75
2023-04-11T09:08:00.023Z,23.40
2023-04-11T09:10:28.013Z,24.52
2023-04-11T09:12:56.016Z,26.02
2023-04-11T09:15:28.132Z,28.90
2023-04-11T09:17:57.541Z,26.10
2023-04-11T09:20:29.872Z,29.90
2023-04-11T09:24:06.664Z,26.23
2023-04-11T09:26:42.559Z,23.27
2023-04-11T09:29:09.767Z,23.13
2023-04-11T09:31:45.008Z,23.92
2023-04-11T09:34:13.027Z,25.88
2023-04-11T09:36:40.488Z,21.17
2023-04-11T09:39:18.341Z,21.75
2023-04-11T09:41:45.800Z,24.60
2023-04-11T09:44:12.843Z,19.33
2023-04-11T09:47:00.722Z,20.15
2023-04-11T09:49:28.136Z,22.40
2023-04-11T09:51:56.985Z,27.52
2023-04-11T09:54:24.642Z,22.10
2023-04-11T09:56:51.653Z,20.15
2023-04-11T09:59:21.622Z,25.25
2023-04-11T10:01:51.515Z,21.42
2023-04-11T10:04:20.521Z,20.10
2023-04-11T10:07:04.142Z,22.15
2023-04-11T10:09:32.576Z,21.92
2023-04-11T10:11:59.734Z,19.77
2023-04-11T10:14:38.756Z,21.17
2023-04-11T10:17:16.910Z,22.45
2023-04-11T10:19:46.336Z,19.45
2023-04-11T10:22:41.803Z,21.25
2023-04-11T10:25:18.555Z,22.02
2023-04-11T10:27:48.472Z,18.00
2023-04-11T10:30:15.885Z,14.65
2023-04-11T10:33:11.920Z,20.25
2023-04-11T10:36:00.147Z,17.73
2023-04-11T10:38:51.623Z,18.00
2023-04-11T10:44:23.413Z,12.83
2023-04-11T10:46:56.718Z,11.48
2023-04-11T10:49:35.467Z,13.40
2023-04-11T10:52:37.529Z,17.05
2023-04-11T10:55:17.998Z,18.55
2023-04-11T10:58:10.228Z,14.15
2023-04-11T11:00:55.762Z,15.48
2023-04-11T11:03:30.901Z,14.05
2023-04-11T11:06:00.117Z,17.80
2023-04-11T11:08:36.609Z,13.90
2023-04-11T11:11:06.932Z,10.30
2023-04-11T11:13:52.069Z,15.13
2023-04-11T11:16:28.134Z,15.52
2023-04-11T11:18:59.379Z,14.48
2023-04-11T11:21:28.845Z,13.18
2023-04-11T11:24:01.601Z,12.38
2023-04-11T11:26:42.917Z,10.95
2023-04-11T11:29:10.833Z,8.95
2023-04-11T11:31:39.493Z,13.75
2023-04-11T11:34:22.228Z,8.27
2023-04-11T11:36:51.258Z,6.50
2023-04-11T11:39:20.440Z,7.80
2023-04-11T11:41:49.080Z,6.07
2023-04-11T11:44:25.876Z,5.72
2023-04-11T11:47:06.224Z,8.07
2023-04-11T11:49:52.923Z,5.03
2023-04-11T11:52:40.675Z,4.88
2023-04-11T11:55:19.986Z,4.65
2023-04-11T11:57:48.153Z,7.05
2023-04-11T12:00:23.621Z,7.50
2023-04-11T12:02:53.278Z,10.18
2023-04-11T12:05:20.664Z,5.32
2023-04-11T12:07:53.232Z,9.95
2023-04-11T12:10:20.404Z,8.45
2023-04-11T12:13:09.064Z,6.88
2023-04-11T12:15:53.327Z,8.50
2023-04-11T12:18:21.976Z,6.55
2023-04-11T12:20:49.990Z,10.63
2023-04-11T12:23:17.729Z,9.43
2023-04-11T12:25:45.168Z,12.38
2023-04-11T12:28:12.462Z,12.48
2023-04-11T12:30:40.037Z,8.40
2023-04-11T12:33:07.284Z,12.18
2023-04-11T12:35:34.169Z,15.25
2023-04-11T12:38:01.519Z,14.00
2023-04-11T12:40:29.958Z,11.90
2023-04-11T12:42:57.672Z,12.45
2023-04-11T12:45:25.265Z,12.65
2023-04-11T12:47:52.745Z,14.60
2023-04-11T12:50:19.672Z,13.48
2023-04-11T12:52:48.699Z,10.25
2023-04-11T12:55:16.125Z,11.25
2023-04-11T12:57:43.987Z,16.08
2023-04-11T13:00:12.901Z,14.60
2023-04-11T13:02:43.887Z,10.18
2023-04-11T13:05:14.269Z,11.73
2023-04-11T13:07:42.949Z,15.52
2023-04-11T13:10:10.618Z,14.57
2023-04-11T13:12:41.642Z,14.15
2023-04-11T13:15:09.907Z,14.15
2023-04-11T13:17:37.256Z,12.40
2023-04-11T13:20:08.010Z,22.90
2023-04-11T13:22:35.218Z,13.88
2023-04-11T13:25:02.043Z,15.20
2023-04-11T13:27:29.015Z,12.05
2023-04-11T13:29:56.437Z,21.05
2023-04-11T13:32:23.422Z,16.65
2023-04-11T13:34:50.711Z,22.25
2023-04-11T13:37:17.798Z,19.40
2023-04-11T13:39:44.931Z,15.00
2023-04-11T13:42:11.895Z,14.25
2023-04-11T13:44:38.871Z,14.20
2023-04-11T13:47:05.964Z,12.00
2023-04-11T13:49:32.931Z,13.20
2023-04-11T13:52:00.761Z,17.65
2023-04-11T13:54:27.665Z,9.32
2023-04-11T13:56:54.528Z,9.27
2023-04-11T13:59:21.575Z,26.52
2023-04-11T14:01:48.748Z,17.17
2023-04-11T14:04:16.250Z,15.70
2023-04-11T14:09:35.143Z,16.65
2023-04-11T14:12:02.072Z,13.88
2023-04-11T14:14:37.847Z,13.18
2023-04-11T14:17:15.565Z,13.18
2023-04-11T14:19:54.463Z,13.50
2023-04-11T14:22:21.649Z,14.90
2023-04-11T14:24:48.445Z,14.85
2023-04-11T14:27:24.234Z,17.88
2023-04-11T14:29:54.621Z,14.75
2023-04-11T14:32:21.749Z,18.15
2023-04-11T14:34:49.099Z,16.67
2023-04-11T14:37:16.266Z,17.45
2023-04-11T14:39:43.437Z,16.50
2023-04-11T14:42:10.484Z,19.55
2023-04-11T14:44:40.988Z,20.48
2023-04-11T14:47:08.884Z,24.27
2023-04-11T14:49:36.500Z,44.00
2023-04-11T14:52:03.342Z,27.80
2023-04-11T14:54:33.698Z,27.73
2023-04-11T14:57:00.949Z,21.85
2023-04-11T14:59:28.044Z,21.83
2023-04-11T15:01:55.138Z,24.08
2023-04-11T15:04:22.370Z,23.95
2023-04-11T15:06:49.591Z,27.77
2023-04-11T15:09:20.186Z,27.67
2023-04-11T15:11:50.497Z,28.52
2023-04-11T15:14:17.826Z,27.80
2023-04-11T15:16:44.802Z,27.17
2023-04-11T15:19:11.772Z,26.92
2023-04-11T15:21:38.733Z,35.13
2023-04-11T15:24:07.580Z,31.77
2023-04-11T15:26:35.341Z,28.98
2023-04-11T15:29:02.232Z,25.35
2023-04-11T15:31:29.401Z,23.85
2023-04-11T15:33:59.937Z,23.45
2023-04-11T15:36:26.788Z,28.70
2023-04-11T15:38:54.666Z,28.45
2023-04-11T15:41:22.149Z,33.50
2023-04-11T15:43:49.126Z,31.75
2023-04-11T15:46:16.481Z,27.15
2023-04-11T15:48:43.290Z,26.92
2023-04-11T15:51:11.434Z,28.35
2023-04-11T15:53:38.330Z,32.95
2023-04-11T15:56:08.729Z,35.30
2023-04-11T15:58:35.743Z,41.50
2023-04-11T16:01:03.025Z,44.75
2023-04-11T16:03:33.113Z,52.95
2023-04-11T16:06:01.265Z,47.10
2023-04-11T16:08:28.339Z,41.47
2023-04-11T16:11:11.139Z,40.22
2023-04-11T16:13:38.052Z,40.58
2023-04-11T16:16:05.494Z,34.38
2023-04-11T16:18:43.481Z,31.42
2023-04-11T16:21:15.807Z,39.38
2023-04-11T16:23:59.432Z,35.90
2023-04-11T16:26:36.368Z,33.25
2023-04-11T16:29:03.828Z,31.95
2023-04-11T16:31:33.900Z,29.63
2023-04-11T16:34:01.387Z,28.80
2023-04-11T16:36:29.098Z,25.25
2023-04-11T16:38:56.412Z,24.67
2023-04-11T16:41:23.347Z,21.02
2023-04-11T16:43:50.375Z,21.20
2023-04-11T16:46:17.438Z,26.58
2023-04-11T16:48:44.803Z,20.55
2023-04-11T16:51:12.271Z,16.83
2023-04-11T16:53:39.895Z,15.52
2023-04-11T16:56:07.016Z,14.48
2023-04-11T16:58:34.008Z,14.82
2023-04-11T17:01:01.845Z,21.13
2023-04-11T17:03:29.097Z,18.10
2023-04-11T17:05:56.283Z,22.90
2023-04-11T17:08:23.777Z,19.85
2023-04-11T17:10:50.626Z,17.90
2023-04-11T17:13:19.255Z,19.67
2023-04-11T17:15:46.475Z,18.80
2023-04-11T17:18:15.034Z,18.95
2023-04-11T17:20:43.633Z,21.52
2023-04-11T17:23:12.412Z,23.33
2023-04-11T17:25:39.431Z,21.92
2023-04-11T17:28:26.551Z,20.27
2023-04-11T17:30:53.868Z,23.20
2023-04-11T17:33:24.602Z,22.02
2023-04-11T17:36:02.508Z,18.65
2023-04-11T17:38:29.993Z,16.90
2023-04-11T17:41:00.208Z,26.30
2023-04-11T17:43:33.968Z,20.50
2023-04-11T17:46:01.834Z,17.42
2023-04-11T17:48:29.172Z,22.05
2023-04-11T17:50:56.348Z,18.67
2023-04-11T17:53:23.662Z,16.85
2023-04-11T17:55:54.540Z,15.95
2023-04-11T17:58:26.060Z,17.50
2023-04-11T18:03:26.318Z,11.63
2023-04-11T18:05:54.828Z,19.13
2023-04-11T18:08:35.469Z,23.77
2023-04-11T18:11:10.263Z,23.60
2023-04-11T18:14:03.112Z,17.77
2023-04-11T18:16:29.945Z,23.27
2023-04-11T18:18:56.966Z,17.65
2023-04-11T18:21:24.057Z,24.80
2023-04-11T18:23:51.169Z,24.40
2023-04-11T18:26:18.159Z,22.80
2023-04-11T18:28:45.186Z,22.23
2023-04-11T18:31:12.174Z,26.90
2023-04-11T18:33:43.160Z,30.35
2023-04-11T18:36:12.039Z,30.65
2023-04-11T18:38:39.138Z,24.25
2023-04-11T18:41:07.799Z,21.35
2023-04-11T18:43:35.728Z,15.80
2023-04-11T18:46:03.064Z,14.63
2023-04-11T18:48:30.843Z,15.93
2023-04-11T18:51:01.295Z,17.17
2023-04-11T18:53:30.207Z,19.02
2023-04-11T18:55:57.949Z,22.95
2023-04-11T18:58:26.543Z,26.38
2023-04-11T19:00:54.251Z,22.08
2023-04-11T19:03:23.651Z,23.92
2023-04-11T19:05:51.651Z,17.77
2023-04-11T19:08:18.875Z,14.18
2023-04-11T19:10:46.252Z,15.75
2023-04-11T19:13:13.219Z,17.92
2023-04-11T19:15:41.413Z,21.17
2023-04-11T19:18:10.426Z,21.35
2023-04-11T19:20:39.013Z,16.17
2023-04-11T19:23:06.757Z,15.15
2023-04-11T19:25:34.038Z,13.80
2023-04-11T19:28:01.108Z,19.92
2023-04-11T19:30:28.690Z,18.50
2023-04-11T19:32:56.362Z,15.45
2023-04-11T19:35:24.881Z,16.27
2023-04-11T19:37:52.129Z,16.58
2023-04-11T19:40:19.054Z,19.00
2023-04-11T19:42:46.238Z,13.02
2023-04-11T19:45:13.455Z,19.77
2023-04-11T19:47:41.783Z,20.00
2023-04-11T19:50:13.025Z,16.63
2023-04-11T19:52:41.681Z,14.50
2023-04-11T19:55:09.499Z,21.13
2023-04-11T19:57:38.948Z,19.88
2023-04-11T20:00:17.382Z,19.73
2023-04-11T20:02:46.780Z,20.05
2023-04-11T20:05:16.333Z,17.88
2023-04-11T20:07:45.810Z,14.93
2023-04-11T20:10:13.896Z,15.68
2023-04-11T20:12:41.163Z,15.90
2023-04-11T20:15:09.355Z,13.05
2023-04-11T20:17:36.418Z,12.30
2023-04-11T20:20:06.543Z,12.07
2023-04-11T20:22:33.499Z,18.73
2023-04-11T20:25:00.651Z,14.57
2023-04-11T20:27:28.331Z,16.48
2023-04-11T20:29:56.834Z,13.18
2023-04-11T20:32:24.013Z,15.18
2023-04-11T20:34:51.287Z,17.73
2023-04-11T20:37:19.527Z,10.90
2023-04-11T20:39:46.880Z,9.70
2023-04-11T20:42:13.823Z,9.35
2023-04-11T20:44:42.780Z,9.75
2023-04-11T20:47:09.863Z,11.05
2023-04-11T20:49:36.840Z,10.20
2023-04-11T20:52:03.959Z,10.60
2023-04-11T20:54:30.953Z,9.60
2023-04-11T20:56:57.872Z,9.38
2023-04-11T20:59:24.897Z,8.07
2023-04-11T21:01:53.687Z,9.73
2023-04-11T21:04:22.114Z,10.05
2023-04-11T21:06:50.215Z,9.50
2023-04-11T21:09:17.703Z,8.80
2023-04-11T21:11:44.771Z,10.88
2023-04-11T21:14:11.684Z,9.15
2023-04-11T21:16:38.739Z,8.38
2023-04-11T21:19:05.606Z,8.65
2023-04-11T21:21:33.709Z,13.27
2023-04-11T21:24:01.505Z,8.68
2023-04-11T21:26:28.632Z,10.32
2023-04-11T21:28:56.070Z,9.00
2023-04-11T21:31:23.138Z,9.00
2023-04-11T21:33:50.093Z,9.73
2023-04-11T21:36:17.029Z,8.80
2023-04-11T21:38:43.974Z,7.68
2023-04-11T21:41:11.002Z,6.20
2023-04-11T21:43:37.898Z,6.85
2023-04-11T21:46:05.090Z,7.70
2023-04-11T21:48:31.997Z,9.77
2023-04-11T21:50:59.079Z,7.25
2023-04-11T21:53:26.523Z,7.13
2023-04-11T21:55:53.430Z,7.75
2023-04-11T21:58:29.129Z,10.85
2023-04-11T22:00:56.815Z,12.95
2023-04-11T22:03:24.250Z,11.20
2023-04-11T22:05:52.554Z,12.20
2023-04-11T22:08:20.307Z,14.30
2023-04-11T22:10:48.484Z,11.07
2023-04-11T22:13:17.565Z,13.45
2023-04-11T22:15:45.831Z,14.30
2023-04-11T22:18:13.272Z,13.40
2023-04-11T22:20:44.363Z,19.02
2023-04-11T22:23:12.993Z,20.77
2023-04-11T22:25:44.328Z,13.27
2023-04-11T22:28:18.489Z,13.40
2023-04-11T22:30:46.690Z,11.48
2023-04-11T22:33:14.021Z,10.70
2023-04-11T22:35:43.966Z,12.93
2023-04-11T22:38:11.642Z,10.60
2023-04-11T22:40:41.420Z,11.23
2023-04-11T22:43:09.949Z,12.27
2023-04-11T22:45:36.872Z,10.20
2023-04-11T22:48:06.057Z,9.20
2023-04-11T22:50:37.264Z,12.60
2023-04-11T22:53:04.651Z,9.65
2023-04-11T22:55:35.646Z,7.88
2023-04-11T22:58:03.648Z,9.35
2023-04-11T23:00:31.482Z,10.98
2023-04-11T23:02:59.872Z,11.20
2023-04-11T23:05:26.958Z,13.20
2023-04-11T23:07:54.102Z,9.52
2023-04-11T23:10:20.934Z,9.75
2023-04-11T23:12:49.230Z,10.77
2023-04-11T23:15:17.441Z,12.65
2023-04-11T23:17:45.075Z,9.30
2023-04-11T23:20:12.890Z,12.70
2023-04-11T23:22:42.099Z,9.38
2023-04-11T23:25:11.026Z,9.55
2023-04-11T23:27:38.617Z,13.73
2023-04-11T23:30:06.243Z,10.23
2023-04-11T23:32:33.782Z,9.90
2023-04-11T23:35:00.741Z,14.77
2023-04-11T23:37:28.412Z,10.70
2023-04-11T23:39:55.375Z,14.68
2023-04-11T23:42:22.780Z,9.77
2023-04-11T23:44:49.582Z,10.63
2023-04-11T23:47:16.525Z,10.98
2023-04-11T23:49:44.392Z,11.70
2023-04-11T23:52:14.353Z,15.32
2023-04-11T23:54:41.651Z,11.88
2023-04-11T23:57:08.566Z,14.05
2023-04-11T23:59:36.138Z,14.85
